sensor_id;sensor_type;location;lat;lon;timestamp;P1;P2;P0
38288;PMS5003;24092;53.370;-6.588;2022-07-15T00:00:54;6;5;
38288;PMS5003;24092;53.370;-6.588;2022-07-15T00:03:21;8;7;
38288;PMS5003;24092;53.370;-6.588;2022-07-15T00:05:48;7;6;
38288;PMS5003;24092;53.370;-6.588;2022-07-15T00:08:14;9;8;
38288;PMS5003;24092;53.370;-6.588;2022-07-15T00:10:41;13;9;
38288;PMS5003;24092;53.370;-6.588;2022-07-15T00:13:08;7;7;
38288;PMS5003;24092;53.370;-6.588;2022-07-15T00:15:35;9;7;
38288;PMS5003;24092;53.370;-6.588;2022-07-15T00:18:02;9;7;
38288;PMS5003;24092;53.370;-6.588;2022-07-15T00:20:30;7;7;
38288;PMS5003;24092;53.370;-6.588;2022-07-15T00:22:57;7;6;
38288;PMS5003;24092;53.370;-6.588;2022-07-15T00:25:24;9;8;
38288;PMS5003;24092;53.370;-6.588;2022-07-15T00:27:52;7;6;
38288;PMS5003;24092;53.370;-6.588;2022-07-15T00:30:20;8;7;
38288;PMS5003;24092;53.370;-6.588;2022-07-15T00:32:48;7;7;
38288;PMS5003;24092;53.370;-6.588;2022-07-15T00:35:15;6;6;
38288;PMS5003;24092;53.370;-6.588;2022-07-15T00:37:43;4;4;
38288;PMS5003;24092;53.370;-6.588;2022-07-15T00:40:10;8;7;
38288;PMS5003;24092;53.370;-6.588;2022-07-15T00:42:38;6;6;
38288;PMS5003;24092;53.370;-6.588;2022-07-15T00:45:08;7;7;
38288;PMS5003;24092;53.370;-6.588;2022-07-15T00:47:35;7;7;
38288;PMS5003;24092;53.370;-6.588;2022-07-15T00:50:02;9;8;
38288;PMS5003;24092;53.370;-6.588;2022-07-15T00:52:30;6;6;
38288;PMS5003;24092;53.370;-6.588;2022-07-15T00:54:59;5;5;
38288;PMS5003;24092;53.370;-6.588;2022-07-15T00:57:28;8;7;
38288;PMS5003;24092;53.370;-6.588;2022-07-15T00:59:57;6;6;
38288;PMS5003;24092;53.370;-6.588;2022-07-15T01:02:27;8;8;
38288;PMS5003;24092;53.370;-6.588;2022-07-15T01:04:55;6;6;
38288;PMS5003;24092;53.370;-6.588;2022-07-15T01:07:24;5;5;
38288;PMS5003;24092;53.370;-6.588;2022-07-15T01:09:51;7;6;
38288;PMS5003;24092;53.370;-6.588;2022-07-15T01:12:18;5;5;
38288;PMS5003;24092;53.370;-6.588;2022-07-15T01:14:45;6;6;
38288;PMS5003;24092;53.370;-6.588;2022-07-15T01:17:12;7;6;
38288;PMS5003;24092;53.370;-6.588;2022-07-15T01:19:39;6;6;
38288;PMS5003;24092;53.370;-6.588;2022-07-15T01:22:05;8;6;
38288;PMS5003;24092;53.370;-6.588;2022-07-15T01:24:33;7;7;
38288;PMS5003;24092;53.370;-6.588;2022-07-15T01:27:01;6;5;
38288;PMS5003;24092;53.370;-6.588;2022-07-15T01:29:28;6;6;
38288;PMS5003;24092;53.370;-6.588;2022-07-15T01:31:55;7;6;
38288;PMS5003;24092;53.370;-6.588;2022-07-15T01:34:22;7;6;
38288;PMS5003;24092;53.370;-6.588;2022-07-15T01:36:49;7;7;
38288;PMS5003;24092;53.370;-6.588;2022-07-15T01:39:16;6;6;
38288;PMS5003;24092;53.370;-6.588;2022-07-15T01:41:43;7;6;
38288;PMS5003;24092;53.370;-6.588;2022-07-15T01:44:11;9;9;
38288;PMS5003;24092;53.370;-6.588;2022-07-15T01:46:38;9;7;
38288;PMS5003;24092;53.370;-6.588;2022-07-15T01:49:05;9;7;
38288;PMS5003;24092;53.370;-6.588;2022-07-15T01:51:32;7;7;
38288;PMS5003;24092;53.370;-6.588;2022-07-15T01:53:59;7;6;
38288;PMS5003;24092;53.370;-6.588;2022-07-15T01:56:26;6;5;
38288;PMS5003;24092;53.370;-6.588;2022-07-15T01:58:53;7;7;
38288;PMS5003;24092;53.370;-6.588;2022-07-15T02:01:20;9;7;
38288;PMS5003;24092;53.370;-6.588;2022-07-15T02:03:47;7;7;
38288;PMS5003;24092;53.370;-6.588;2022-07-15T02:06:14;9;7;
38288;PMS5003;24092;53.370;-6.588;2022-07-15T02:08:41;7;6;
38288;PMS5003;24092;53.370;-6.588;2022-07-15T02:11:08;10;8;
38288;PMS5003;24092;53.370;-6.588;2022-07-15T02:13:35;5;5;
38288;PMS5003;24092;53.370;-6.588;2022-07-15T02:16:02;6;6;
38288;PMS5003;24092;53.370;-6.588;2022-07-15T02:18:30;9;8;
38288;PMS5003;24092;53.370;-6.588;2022-07-15T02:20:57;9;8;
38288;PMS5003;24092;53.370;-6.588;2022-07-15T02:23:23;6;5;
38288;PMS5003;24092;53.370;-6.588;2022-07-15T02:25:50;8;7;
38288;PMS5003;24092;53.370;-6.588;2022-07-15T02:28:18;8;6;
38288;PMS5003;24092;53.370;-6.588;2022-07-15T02:30:44;6;6;
38288;PMS5003;24092;53.370;-6.588;2022-07-15T02:33:11;6;6;
38288;PMS5003;24092;53.370;-6.588;2022-07-15T02:35:38;6;6;
38288;PMS5003;24092;53.370;-6.588;2022-07-15T02:38:07;5;5;
38288;PMS5003;24092;53.370;-6.588;2022-07-15T02:40:35;8;8;
38288;PMS5003;24092;53.370;-6.588;2022-07-15T02:43:02;6;6;
38288;PMS5003;24092;53.370;-6.588;2022-07-15T02:45:30;7;7;
38288;PMS5003;24092;53.370;-6.588;2022-07-15T02:48:00;7;7;
38288;PMS5003;24092;53.370;-6.588;2022-07-15T02:50:27;19;19;
38288;PMS5003;24092;53.370;-6.588;2022-07-15T02:52:54;26;26;
38288;PMS5003;24092;53.370;-6.588;2022-07-15T02:55:22;17;16;
38288;PMS5003;24092;53.370;-6.588;2022-07-15T02:57:49;16;15;
38288;PMS5003;24092;53.370;-6.588;2022-07-15T03:00:16;25;25;
38288;PMS5003;24092;53.370;-6.588;2022-07-15T03:02:45;27;26;
38288;PMS5003;24092;53.370;-6.588;2022-07-15T03:05:13;17;17;
38288;PMS5003;24092;53.370;-6.588;2022-07-15T03:07:41;15;15;
38288;PMS5003;24092;53.370;-6.588;2022-07-15T03:10:09;8;7;
38288;PMS5003;24092;53.370;-6.588;2022-07-15T03:12:38;9;7;
38288;PMS5003;24092;53.370;-6.588;2022-07-15T03:15:06;7;6;
38288;PMS5003;24092;53.370;-6.588;2022-07-15T03:17:34;12;11;
38288;PMS5003;24092;53.370;-6.588;2022-07-15T03:20:02;16;15;
38288;PMS5003;24092;53.370;-6.588;2022-07-15T03:22:29;17;15;
38288;PMS5003;24092;53.370;-6.588;2022-07-15T03:24:56;14;13;
38288;PMS5003;24092;53.370;-6.588;2022-07-15T03:27:24;11;9;
38288;PMS5003;24092;53.370;-6.588;2022-07-15T03:29:51;8;8;
38288;PMS5003;24092;53.370;-6.588;2022-07-15T03:32:18;10;10;
38288;PMS5003;24092;53.370;-6.588;2022-07-15T03:34:46;9;9;
38288;PMS5003;24092;53.370;-6.588;2022-07-15T03:37:13;11;10;
38288;PMS5003;24092;53.370;-6.588;2022-07-15T03:39:40;10;10;
38288;PMS5003;24092;53.370;-6.588;2022-07-15T03:42:07;10;10;
38288;PMS5003;24092;53.370;-6.588;2022-07-15T03:44:34;12;11;
38288;PMS5003;24092;53.370;-6.588;2022-07-15T03:47:02;12;11;
38288;PMS5003;24092;53.370;-6.588;2022-07-15T03:49:28;13;12;
38288;PMS5003;24092;53.370;-6.588;2022-07-15T03:51:55;14;14;
38288;PMS5003;24092;53.370;-6.588;2022-07-15T03:54:28;15;15;
38288;PMS5003;24092;53.370;-6.588;2022-07-15T03:56:55;12;12;
38288;PMS5003;24092;53.370;-6.588;2022-07-15T03:59:22;12;12;
38288;PMS5003;24092;53.370;-6.588;2022-07-15T04:01:49;13;12;
38288;PMS5003;24092;53.370;-6.588;2022-07-15T04:04:16;13;13;
38288;PMS5003;24092;53.370;-6.588;2022-07-15T04:06:43;13;13;
38288;PMS5003;24092;53.370;-6.588;2022-07-15T04:09:16;10;8;
38288;PMS5003;24092;53.370;-6.588;2022-07-15T04:11:43;16;16;
38288;PMS5003;24092;53.370;-6.588;2022-07-15T04:14:11;7;6;
38288;PMS5003;24092;53.370;-6.588;2022-07-15T04:16:40;6;6;
38288;PMS5003;24092;53.370;-6.588;2022-07-15T04:19:07;20;20;
38288;PMS5003;24092;53.370;-6.588;2022-07-15T04:21:34;7;6;
38288;PMS5003;24092;53.370;-6.588;2022-07-15T04:24:01;5;4;
38288;PMS5003;24092;53.370;-6.588;2022-07-15T04:26:29;6;6;
38288;PMS5003;24092;53.370;-6.588;2022-07-15T04:28:56;7;7;
38288;PMS5003;24092;53.370;-6.588;2022-07-15T04:31:23;7;7;
38288;PMS5003;24092;53.370;-6.588;2022-07-15T04:33:51;5;4;
38288;PMS5003;24092;53.370;-6.588;2022-07-15T04:36:19;6;6;
38288;PMS5003;24092;53.370;-6.588;2022-07-15T04:38:46;6;6;
38288;PMS5003;24092;53.370;-6.588;2022-07-15T04:41:12;6;6;
38288;PMS5003;24092;53.370;-6.588;2022-07-15T04:43:39;7;6;
38288;PMS5003;24092;53.370;-6.588;2022-07-15T04:46:06;7;6;
38288;PMS5003;24092;53.370;-6.588;2022-07-15T04:48:33;6;6;
38288;PMS5003;24092;53.370;-6.588;2022-07-15T04:51:00;7;6;
38288;PMS5003;24092;53.370;-6.588;2022-07-15T04:53:27;6;5;
38288;PMS5003;24092;53.370;-6.588;2022-07-15T04:55:54;7;6;
38288;PMS5003;24092;53.370;-6.588;2022-07-15T04:58:21;9;7;
38288;PMS5003;24092;53.370;-6.588;2022-07-15T05:00:48;7;6;
38288;PMS5003;24092;53.370;-6.588;2022-07-15T05:03:14;6;5;
38288;PMS5003;24092;53.370;-6.588;2022-07-15T05:05:42;9;8;
38288;PMS5003;24092;53.370;-6.588;2022-07-15T05:08:10;5;5;
38288;PMS5003;24092;53.370;-6.588;2022-07-15T05:10:37;8;7;
38288;PMS5003;24092;53.370;-6.588;2022-07-15T05:13:04;8;8;
38288;PMS5003;24092;53.370;-6.588;2022-07-15T05:15:32;8;7;
38288;PMS5003;24092;53.370;-6.588;2022-07-15T05:17:59;6;5;
38288;PMS5003;24092;53.370;-6.588;2022-07-15T05:20:26;7;7;
38288;PMS5003;24092;53.370;-6.588;2022-07-15T05:22:53;9;7;
38288;PMS5003;24092;53.370;-6.588;2022-07-15T05:25:20;7;6;
38288;PMS5003;24092;53.370;-6.588;2022-07-15T05:27:47;8;8;
38288;PMS5003;24092;53.370;-6.588;2022-07-15T05:30:14;6;6;
38288;PMS5003;24092;53.370;-6.588;2022-07-15T05:32:41;8;7;
38288;PMS5003;24092;53.370;-6.588;2022-07-15T05:35:11;7;7;
38288;PMS5003;24092;53.370;-6.588;2022-07-15T05:37:39;10;8;
38288;PMS5003;24092;53.370;-6.588;2022-07-15T05:40:07;9;8;
38288;PMS5003;24092;53.370;-6.588;2022-07-15T05:42:35;9;7;
38288;PMS5003;24092;53.370;-6.588;2022-07-15T05:45:02;7;7;
38288;PMS5003;24092;53.370;-6.588;2022-07-15T05:47:29;6;6;
38288;PMS5003;24092;53.370;-6.588;2022-07-15T05:49:56;6;6;
38288;PMS5003;24092;53.370;-6.588;2022-07-15T05:52:23;6;5;
38288;PMS5003;24092;53.370;-6.588;2022-07-15T05:54:50;11;9;
38288;PMS5003;24092;53.370;-6.588;2022-07-15T05:57:17;7;7;
38288;PMS5003;24092;53.370;-6.588;2022-07-15T05:59:45;7;7;
38288;PMS5003;24092;53.370;-6.588;2022-07-15T06:02:12;9;7;
38288;PMS5003;24092;53.370;-6.588;2022-07-15T06:04:39;5;5;
38288;PMS5003;24092;53.370;-6.588;2022-07-15T06:07:05;9;7;
38288;PMS5003;24092;53.370;-6.588;2022-07-15T06:09:33;7;6;
38288;PMS5003;24092;53.370;-6.588;2022-07-15T06:12:00;7;7;
38288;PMS5003;24092;53.370;-6.588;2022-07-15T06:14:27;8;7;
38288;PMS5003;24092;53.370;-6.588;2022-07-15T06:16:54;8;7;
38288;PMS5003;24092;53.370;-6.588;2022-07-15T06:19:21;8;7;
38288;PMS5003;24092;53.370;-6.588;2022-07-15T06:21:48;6;6;
38288;PMS5003;24092;53.370;-6.588;2022-07-15T06:24:15;7;7;
38288;PMS5003;24092;53.370;-6.588;2022-07-15T06:26:43;6;6;
38288;PMS5003;24092;53.370;-6.588;2022-07-15T06:29:10;10;8;
38288;PMS5003;24092;53.370;-6.588;2022-07-15T06:31:36;5;4;
38288;PMS5003;24092;53.370;-6.588;2022-07-15T06:34:03;8;7;
38288;PMS5003;24092;53.370;-6.588;2022-07-15T06:36:30;6;6;
38288;PMS5003;24092;53.370;-6.588;2022-07-15T06:38:57;5;5;
38288;PMS5003;24092;53.370;-6.588;2022-07-15T06:41:25;3;3;
38288;PMS5003;24092;53.370;-6.588;2022-07-15T06:43:52;5;5;
38288;PMS5003;24092;53.370;-6.588;2022-07-15T06:46:19;3;3;
38288;PMS5003;24092;53.370;-6.588;2022-07-15T06:48:46;6;6;
38288;PMS5003;24092;53.370;-6.588;2022-07-15T06:51:13;7;7;
38288;PMS5003;24092;53.370;-6.588;2022-07-15T06:53:40;5;5;
38288;PMS5003;24092;53.370;-6.588;2022-07-15T06:56:07;5;5;
38288;PMS5003;24092;53.370;-6.588;2022-07-15T06:58:34;5;5;
38288;PMS5003;24092;53.370;-6.588;2022-07-15T07:01:02;5;5;
38288;PMS5003;24092;53.370;-6.588;2022-07-15T07:03:30;3;3;
38288;PMS5003;24092;53.370;-6.588;2022-07-15T07:05:57;3;3;
38288;PMS5003;24092;53.370;-6.588;2022-07-15T07:08:23;4;4;
38288;PMS5003;24092;53.370;-6.588;2022-07-15T07:10:50;6;3;
38288;PMS5003;24092;53.370;-6.588;2022-07-15T07:13:18;3;2;
38288;PMS5003;24092;53.370;-6.588;2022-07-15T07:15:46;5;5;
38288;PMS5003;24092;53.370;-6.588;2022-07-15T07:18:12;3;3;
38288;PMS5003;24092;53.370;-6.588;2022-07-15T07:20:39;2;2;
38288;PMS5003;24092;53.370;-6.588;2022-07-15T07:23:06;2;2;
38288;PMS5003;24092;53.370;-6.588;2022-07-15T07:25:33;2;2;
38288;PMS5003;24092;53.370;-6.588;2022-07-15T07:28:00;2;2;
38288;PMS5003;24092;53.370;-6.588;2022-07-15T07:30:26;1;1;
38288;PMS5003;24092;53.370;-6.588;2022-07-15T07:32:54;3;2;
38288;PMS5003;24092;53.370;-6.588;2022-07-15T07:35:22;3;3;
38288;PMS5003;24092;53.370;-6.588;2022-07-15T07:37:49;2;2;
38288;PMS5003;24092;53.370;-6.588;2022-07-15T07:40:18;3;3;
38288;PMS5003;24092;53.370;-6.588;2022-07-15T07:42:45;2;2;
38288;PMS5003;24092;53.370;-6.588;2022-07-15T07:45:12;1;1;
38288;PMS5003;24092;53.370;-6.588;2022-07-15T07:47:40;2;2;
38288;PMS5003;24092;53.370;-6.588;2022-07-15T07:50:08;3;3;
38288;PMS5003;24092;53.370;-6.588;2022-07-15T07:52:36;3;3;
38288;PMS5003;24092;53.370;-6.588;2022-07-15T07:55:03;2;2;
38288;PMS5003;24092;53.370;-6.588;2022-07-15T07:57:32;3;3;
38288;PMS5003;24092;53.370;-6.588;2022-07-15T07:59:59;2;2;
38288;PMS5003;24092;53.370;-6.588;2022-07-15T08:02:27;2;2;
38288;PMS5003;24092;53.370;-6.588;2022-07-15T08:04:54;3;2;
38288;PMS5003;24092;53.370;-6.588;2022-07-15T08:07:21;2;2;
38288;PMS5003;24092;53.370;-6.588;2022-07-15T08:09:49;2;1;
38288;PMS5003;24092;53.370;-6.588;2022-07-15T08:12:15;2;2;
38288;PMS5003;24092;53.370;-6.588;2022-07-15T08:14:43;1;1;
38288;PMS5003;24092;53.370;-6.588;2022-07-15T08:17:10;1;1;
38288;PMS5003;24092;53.370;-6.588;2022-07-15T08:19:36;3;3;
38288;PMS5003;24092;53.370;-6.588;2022-07-15T08:22:04;3;3;
38288;PMS5003;24092;53.370;-6.588;2022-07-15T08:24:32;0;0;
38288;PMS5003;24092;53.370;-6.588;2022-07-15T08:26:59;2;2;
38288;PMS5003;24092;53.370;-6.588;2022-07-15T08:29:27;2;2;
38288;PMS5003;24092;53.370;-6.588;2022-07-15T08:31:54;3;3;
38288;PMS5003;24092;53.370;-6.588;2022-07-15T08:34:22;2;2;
38288;PMS5003;24092;53.370;-6.588;2022-07-15T08:36:50;2;1;
38288;PMS5003;24092;53.370;-6.588;2022-07-15T08:39:16;1;1;
38288;PMS5003;24092;53.370;-6.588;2022-07-15T08:41:45;3;3;
38288;PMS5003;24092;53.370;-6.588;2022-07-15T08:44:12;2;2;
38288;PMS5003;24092;53.370;-6.588;2022-07-15T08:46:40;1;1;
38288;PMS5003;24092;53.370;-6.588;2022-07-15T08:49:12;3;2;
38288;PMS5003;24092;53.370;-6.588;2022-07-15T08:51:42;1;1;
38288;PMS5003;24092;53.370;-6.588;2022-07-15T08:54:10;1;1;
38288;PMS5003;24092;53.370;-6.588;2022-07-15T08:56:38;2;2;
38288;PMS5003;24092;53.370;-6.588;2022-07-15T08:59:06;1;1;
38288;PMS5003;24092;53.370;-6.588;2022-07-15T09:01:34;2;2;
38288;PMS5003;24092;53.370;-6.588;2022-07-15T09:04:08;2;1;
38288;PMS5003;24092;53.370;-6.588;2022-07-15T09:06:36;2;2;
38288;PMS5003;24092;53.370;-6.588;2022-07-15T09:09:23;1;1;
38288;PMS5003;24092;53.370;-6.588;2022-07-15T09:11:53;2;2;
38288;PMS5003;24092;53.370;-6.588;2022-07-15T09:14:23;3;2;
38288;PMS5003;24092;53.370;-6.588;2022-07-15T09:16:58;1;1;
38288;PMS5003;24092;53.370;-6.588;2022-07-15T09:19:55;3;2;
38288;PMS5003;24092;53.370;-6.588;2022-07-15T09:22:25;3;2;
38288;PMS5003;24092;53.370;-6.588;2022-07-15T09:25:00;3;2;
38288;PMS5003;24092;53.370;-6.588;2022-07-15T09:27:30;3;2;
38288;PMS5003;24092;53.370;-6.588;2022-07-15T09:30:12;2;1;
38288;PMS5003;24092;53.370;-6.588;2022-07-15T09:32:40;3;2;
38288;PMS5003;24092;53.370;-6.588;2022-07-15T09:35:07;1;1;
38288;PMS5003;24092;53.370;-6.588;2022-07-15T09:37:34;1;1;
38288;PMS5003;24092;53.370;-6.588;2022-07-15T09:40:21;2;2;
38288;PMS5003;24092;53.370;-6.588;2022-07-15T09:43:00;1;1;
38288;PMS5003;24092;53.370;-6.588;2022-07-15T09:45:28;4;3;
38288;PMS5003;24092;53.370;-6.588;2022-07-15T09:48:04;3;3;
38288;PMS5003;24092;53.370;-6.588;2022-07-15T09:50:33;3;1;
38288;PMS5003;24092;53.370;-6.588;2022-07-15T09:53:02;3;3;
38288;PMS5003;24092;53.370;-6.588;2022-07-15T09:55:30;2;2;
38288;PMS5003;24092;53.370;-6.588;2022-07-15T09:57:58;1;1;
38288;PMS5003;24092;53.370;-6.588;2022-07-15T10:00:27;2;2;
38288;PMS5003;24092;53.370;-6.588;2022-07-15T10:02:53;1;1;
38288;PMS5003;24092;53.370;-6.588;2022-07-15T10:05:21;1;1;
38288;PMS5003;24092;53.370;-6.588;2022-07-15T10:07:48;3;2;
38288;PMS5003;24092;53.370;-6.588;2022-07-15T10:10:17;1;1;
38288;PMS5003;24092;53.370;-6.588;2022-07-15T10:12:48;2;2;
38288;PMS5003;24092;53.370;-6.588;2022-07-15T10:15:26;1;1;
38288;PMS5003;24092;53.370;-6.588;2022-07-15T10:18:07;1;1;
38288;PMS5003;24092;53.370;-6.588;2022-07-15T10:20:47;3;3;
38288;PMS5003;24092;53.370;-6.588;2022-07-15T10:23:31;2;2;
38288;PMS5003;24092;53.370;-6.588;2022-07-15T10:26:14;3;3;
38288;PMS5003;24092;53.370;-6.588;2022-07-15T10:28:55;5;3;
38288;PMS5003;24092;53.370;-6.588;2022-07-15T10:31:28;6;5;
38288;PMS5003;24092;53.370;-6.588;2022-07-15T10:34:29;7;3;
38288;PMS5003;24092;53.370;-6.588;2022-07-15T10:37:00;3;3;
38288;PMS5003;24092;53.370;-6.588;2022-07-15T10:42:14;3;3;
38288;PMS5003;24092;53.370;-6.588;2022-07-15T10:45:03;4;3;
38288;PMS5003;24092;53.370;-6.588;2022-07-15T10:47:33;3;2;
38288;PMS5003;24092;53.370;-6.588;2022-07-15T10:50:01;3;3;
38288;PMS5003;24092;53.370;-6.588;2022-07-15T10:53:20;4;3;
38288;PMS5003;24092;53.370;-6.588;2022-07-15T10:55:49;3;2;
38288;PMS5003;24092;53.370;-6.588;2022-07-15T10:58:18;3;3;
38288;PMS5003;24092;53.370;-6.588;2022-07-15T11:00:46;5;4;
38288;PMS5003;24092;53.370;-6.588;2022-07-15T11:03:13;4;4;
38288;PMS5003;24092;53.370;-6.588;2022-07-15T11:06:15;3;3;
38288;PMS5003;24092;53.370;-6.588;2022-07-15T11:08:47;4;4;
38288;PMS5003;24092;53.370;-6.588;2022-07-15T11:11:49;6;6;
38288;PMS5003;24092;53.370;-6.588;2022-07-15T11:15:20;5;4;
38288;PMS5003;24092;53.370;-6.588;2022-07-15T11:17:49;5;4;
38288;PMS5003;24092;53.370;-6.588;2022-07-15T11:20:19;4;4;
38288;PMS5003;24092;53.370;-6.588;2022-07-15T11:22:48;4;4;
38288;PMS5003;24092;53.370;-6.588;2022-07-15T11:25:18;5;4;
38288;PMS5003;24092;53.370;-6.588;2022-07-15T11:28:03;4;4;
38288;PMS5003;24092;53.370;-6.588;2022-07-15T11:30:34;3;2;
38288;PMS5003;24092;53.370;-6.588;2022-07-15T11:33:04;4;4;
38288;PMS5003;24092;53.370;-6.588;2022-07-15T11:35:42;5;5;
38288;PMS5003;24092;53.370;-6.588;2022-07-15T11:38:10;7;6;
38288;PMS5003;24092;53.370;-6.588;2022-07-15T11:40:41;3;3;
38288;PMS5003;24092;53.370;-6.588;2022-07-15T11:43:12;6;4;
38288;PMS5003;24092;53.370;-6.588;2022-07-15T11:45:40;4;4;
38288;PMS5003;24092;53.370;-6.588;2022-07-15T11:48:08;5;4;
38288;PMS5003;24092;53.370;-6.588;2022-07-15T11:50:36;4;4;
38288;PMS5003;24092;53.370;-6.588;2022-07-15T11:53:11;8;7;
38288;PMS5003;24092;53.370;-6.588;2022-07-15T11:55:47;3;3;
38288;PMS5003;24092;53.370;-6.588;2022-07-15T11:58:24;6;5;
38288;PMS5003;24092;53.370;-6.588;2022-07-15T12:00:52;5;5;
38288;PMS5003;24092;53.370;-6.588;2022-07-15T12:03:19;3;3;
38288;PMS5003;24092;53.370;-6.588;2022-07-15T12:06:04;5;4;
38288;PMS5003;24092;53.370;-6.588;2022-07-15T12:08:35;5;5;
38288;PMS5003;24092;53.370;-6.588;2022-07-15T12:11:09;6;5;
38288;PMS5003;24092;53.370;-6.588;2022-07-15T12:13:40;6;6;
38288;PMS5003;24092;53.370;-6.588;2022-07-15T12:16:09;4;3;
38288;PMS5003;24092;53.370;-6.588;2022-07-15T12:18:37;7;6;
38288;PMS5003;24092;53.370;-6.588;2022-07-15T12:21:05;3;3;
38288;PMS5003;24092;53.370;-6.588;2022-07-15T12:23:32;5;5;
38288;PMS5003;24092;53.370;-6.588;2022-07-15T12:26:02;5;5;
38288;PMS5003;24092;53.370;-6.588;2022-07-15T12:28:30;8;6;
38288;PMS5003;24092;53.370;-6.588;2022-07-15T12:30:58;7;6;
38288;PMS5003;24092;53.370;-6.588;2022-07-15T12:33:26;7;6;
38288;PMS5003;24092;53.370;-6.588;2022-07-15T12:36:11;3;3;
38288;PMS5003;24092;53.370;-6.588;2022-07-15T12:38:40;6;4;
38288;PMS5003;24092;53.370;-6.588;2022-07-15T12:41:08;3;3;
38288;PMS5003;24092;53.370;-6.588;2022-07-15T12:43:46;6;6;
38288;PMS5003;24092;53.370;-6.588;2022-07-15T12:46:14;4;4;
38288;PMS5003;24092;53.370;-6.588;2022-07-15T12:48:43;6;5;
38288;PMS5003;24092;53.370;-6.588;2022-07-15T12:51:10;4;4;
38288;PMS5003;24092;53.370;-6.588;2022-07-15T12:53:38;5;4;
38288;PMS5003;24092;53.370;-6.588;2022-07-15T12:56:05;6;6;
38288;PMS5003;24092;53.370;-6.588;2022-07-15T12:58:32;3;3;
38288;PMS5003;24092;53.370;-6.588;2022-07-15T13:01:08;5;5;
38288;PMS5003;24092;53.370;-6.588;2022-07-15T13:03:36;3;3;
38288;PMS5003;24092;53.370;-6.588;2022-07-15T13:06:03;3;3;
38288;PMS5003;24092;53.370;-6.588;2022-07-15T13:08:31;4;4;
38288;PMS5003;24092;53.370;-6.588;2022-07-15T13:11:01;4;4;
38288;PMS5003;24092;53.370;-6.588;2022-07-15T13:13:30;5;5;
38288;PMS5003;24092;53.370;-6.588;2022-07-15T13:16:00;4;3;
38288;PMS5003;24092;53.370;-6.588;2022-07-15T13:18:30;4;4;
38288;PMS5003;24092;53.370;-6.588;2022-07-15T13:20:58;4;4;
38288;PMS5003;24092;53.370;-6.588;2022-07-15T13:23:26;4;4;
38288;PMS5003;24092;53.370;-6.588;2022-07-15T13:25:53;3;3;
38288;PMS5003;24092;53.370;-6.588;2022-07-15T13:28:21;3;3;
38288;PMS5003;24092;53.370;-6.588;2022-07-15T13:30:48;2;2;
38288;PMS5003;24092;53.370;-6.588;2022-07-15T13:33:17;3;3;
38288;PMS5003;24092;53.370;-6.588;2022-07-15T13:35:44;4;4;
38288;PMS5003;24092;53.370;-6.588;2022-07-15T13:38:12;3;3;
38288;PMS5003;24092;53.370;-6.588;2022-07-15T13:40:39;3;3;
38288;PMS5003;24092;53.370;-6.588;2022-07-15T13:43:07;4;4;
38288;PMS5003;24092;53.370;-6.588;2022-07-15T13:45:34;7;5;
38288;PMS5003;24092;53.370;-6.588;2022-07-15T13:48:02;4;4;
38288;PMS5003;24092;53.370;-6.588;2022-07-15T13:50:29;3;3;
38288;PMS5003;24092;53.370;-6.588;2022-07-15T13:52:57;5;5;
38288;PMS5003;24092;53.370;-6.588;2022-07-15T13:55:27;4;4;
38288;PMS5003;24092;53.370;-6.588;2022-07-15T13:57:55;5;4;
38288;PMS5003;24092;53.370;-6.588;2022-07-15T14:00:23;4;4;
38288;PMS5003;24092;53.370;-6.588;2022-07-15T14:02:53;7;5;
38288;PMS5003;24092;53.370;-6.588;2022-07-15T14:05:21;5;5;
38288;PMS5003;24092;53.370;-6.588;2022-07-15T14:07:49;7;7;
38288;PMS5003;24092;53.370;-6.588;2022-07-15T14:10:17;7;5;
38288;PMS5003;24092;53.370;-6.588;2022-07-15T14:12:44;5;5;
38288;PMS5003;24092;53.370;-6.588;2022-07-15T14:15:12;7;6;
38288;PMS5003;24092;53.370;-6.588;2022-07-15T14:17:39;7;6;
38288;PMS5003;24092;53.370;-6.588;2022-07-15T14:20:07;6;6;
38288;PMS5003;24092;53.370;-6.588;2022-07-15T14:22:34;7;6;
38288;PMS5003;24092;53.370;-6.588;2022-07-15T14:25:02;6;6;
38288;PMS5003;24092;53.370;-6.588;2022-07-15T14:27:29;6;5;
38288;PMS5003;24092;53.370;-6.588;2022-07-15T14:29:57;6;6;
38288;PMS5003;24092;53.370;-6.588;2022-07-15T14:32:23;6;4;
38288;PMS5003;24092;53.370;-6.588;2022-07-15T14:34:51;8;7;
38288;PMS5003;24092;53.370;-6.588;2022-07-15T14:37:18;5;4;
38288;PMS5003;24092;53.370;-6.588;2022-07-15T14:39:46;3;3;
38288;PMS5003;24092;53.370;-6.588;2022-07-15T14:42:13;6;6;
38288;PMS5003;24092;53.370;-6.588;2022-07-15T14:44:41;7;6;
38288;PMS5003;24092;53.370;-6.588;2022-07-15T14:47:08;6;6;
38288;PMS5003;24092;53.370;-6.588;2022-07-15T14:49:36;8;7;
38288;PMS5003;24092;53.370;-6.588;2022-07-15T14:52:04;6;5;
38288;PMS5003;24092;53.370;-6.588;2022-07-15T14:54:31;6;6;
38288;PMS5003;24092;53.370;-6.588;2022-07-15T14:56:58;9;8;
38288;PMS5003;24092;53.370;-6.588;2022-07-15T14:59:26;6;5;
38288;PMS5003;24092;53.370;-6.588;2022-07-15T15:01:53;6;6;
38288;PMS5003;24092;53.370;-6.588;2022-07-15T15:04:21;9;8;
38288;PMS5003;24092;53.370;-6.588;2022-07-15T15:06:48;5;5;
38288;PMS5003;24092;53.370;-6.588;2022-07-15T15:09:16;7;7;
38288;PMS5003;24092;53.370;-6.588;2022-07-15T15:11:44;6;5;
38288;PMS5003;24092;53.370;-6.588;2022-07-15T15:14:11;5;5;
38288;PMS5003;24092;53.370;-6.588;2022-07-15T15:16:38;5;5;
38288;PMS5003;24092;53.370;-6.588;2022-07-15T15:19:06;5;5;
38288;PMS5003;24092;53.370;-6.588;2022-07-15T15:21:33;6;6;
38288;PMS5003;24092;53.370;-6.588;2022-07-15T15:24:01;8;5;
38288;PMS5003;24092;53.370;-6.588;2022-07-15T15:26:28;4;4;
38288;PMS5003;24092;53.370;-6.588;2022-07-15T15:28:56;6;6;
38288;PMS5003;24092;53.370;-6.588;2022-07-15T15:31:24;5;5;
38288;PMS5003;24092;53.370;-6.588;2022-07-15T15:33:51;6;6;
38288;PMS5003;24092;53.370;-6.588;2022-07-15T15:36:19;5;5;
38288;PMS5003;24092;53.370;-6.588;2022-07-15T15:38:47;6;6;
38288;PMS5003;24092;53.370;-6.588;2022-07-15T15:41:14;6;5;
38288;PMS5003;24092;53.370;-6.588;2022-07-15T15:43:42;6;5;
38288;PMS5003;24092;53.370;-6.588;2022-07-15T15:46:09;6;6;
38288;PMS5003;24092;53.370;-6.588;2022-07-15T15:48:37;6;5;
38288;PMS5003;24092;53.370;-6.588;2022-07-15T15:51:04;8;6;
38288;PMS5003;24092;53.370;-6.588;2022-07-15T15:53:32;5;5;
38288;PMS5003;24092;53.370;-6.588;2022-07-15T15:55:59;5;4;
38288;PMS5003;24092;53.370;-6.588;2022-07-15T15:58:27;5;5;
38288;PMS5003;24092;53.370;-6.588;2022-07-15T16:00:54;7;5;
38288;PMS5003;24092;53.370;-6.588;2022-07-15T16:03:22;4;4;
38288;PMS5003;24092;53.370;-6.588;2022-07-15T16:05:49;6;6;
38288;PMS5003;24092;53.370;-6.588;2022-07-15T16:08:16;6;6;
38288;PMS5003;24092;53.370;-6.588;2022-07-15T16:10:43;7;6;
38288;PMS5003;24092;53.370;-6.588;2022-07-15T16:13:11;6;5;
38288;PMS5003;24092;53.370;-6.588;2022-07-15T16:15:39;9;8;
38288;PMS5003;24092;53.370;-6.588;2022-07-15T16:18:06;8;7;
38288;PMS5003;24092;53.370;-6.588;2022-07-15T16:20:34;6;6;
38288;PMS5003;24092;53.370;-6.588;2022-07-15T16:23:01;7;6;
38288;PMS5003;24092;53.370;-6.588;2022-07-15T16:25:30;5;5;
38288;PMS5003;24092;53.370;-6.588;2022-07-15T16:27:59;5;5;
38288;PMS5003;24092;53.370;-6.588;2022-07-15T16:30:27;4;4;
38288;PMS5003;24092;53.370;-6.588;2022-07-15T16:32:55;4;4;
38288;PMS5003;24092;53.370;-6.588;2022-07-15T16:35:23;7;6;
38288;PMS5003;24092;53.370;-6.588;2022-07-15T16:37:54;5;5;
38288;PMS5003;24092;53.370;-6.588;2022-07-15T16:40:22;6;6;
38288;PMS5003;24092;53.370;-6.588;2022-07-15T16:42:50;3;2;
38288;PMS5003;24092;53.370;-6.588;2022-07-15T16:45:17;6;6;